Terminal Aerodrome Forecast
Issued by NWS

Home | Current Version | Previous Version | Text Only | Print | Product List | Glossary On
Versions: 1 2 3 4 5 6 7 8 9 10 11 12 13
885
FTUS46 KHNX 222330
TAFVIS
TAF
KVIS 222330Z 2300/2324 19008KT P6SM RA SCT018 BKN024 OVC035
     FM230300 30013G20KT P6SM -SHRA SCT020 BKN045
     FM230900 21008KT P6SM SCT050=

USA.gov is the U.S. government's official web portal to all federal, state and local government web resources and services.